Time;durP1;ratioP1;P1;durP2;ratioP2;P2;SDS_P1;SDS_P2;PMS_P1;PMS_P2;Temp;Humidity;BMP_temperature;BMP_pressure;BME280_temperature;BME280_humidity;BME280_pressure;Samples;Min_cycle;Max_cycle;Signal;HPM_P1;HPM_P2
2023/05/25 00:00:21;;;;;;;14.50;8.68;;;18.20;99.90;;;;;;4937177;29;20103;-76
2023/05/25 00:02:47;;;;;;;16.10;8.60;;;18.30;99.90;;;;;;4921515;29;20036;-76
2023/05/25 00:05:13;;;;;;;18.95;8.80;;;18.30;99.90;;;;;;4927328;29;20031;-77
2023/05/25 00:07:39;;;;;;;14.48;8.80;;;18.20;99.90;;;;;;4932543;29;20024;-77
2023/05/25 00:10:06;;;;;;;15.23;9.02;;;18.20;99.90;;;;;;4917834;29;20099;-75
2023/05/25 00:12:32;;;;;;;15.13;8.95;;;18.30;99.90;;;;;;4930476;29;20106;-74
2023/05/25 00:14:58;;;;;;;17.85;7.90;;;18.10;99.90;;;;;;4933900;29;20024;-75
2023/05/25 00:17:24;;;;;;;14.95;8.00;;;18.10;99.90;;;;;;4936757;29;20082;-75
2023/05/25 00:19:50;;;;;;;13.98;7.47;;;18.00;99.90;;;;;;4936742;29;20510;-74
2023/05/25 00:22:16;;;;;;;15.32;8.43;;;18.10;99.90;;;;;;4936019;29;20034;-75
2023/05/25 00:24:42;;;;;;;17.00;8.13;;;17.90;99.90;;;;;;4936409;29;20387;-75
2023/05/25 00:27:08;;;;;;;14.27;7.60;;;17.90;99.90;;;;;;4936638;29;20118;-74
2023/05/25 00:29:35;;;;;;;16.35;9.07;;;17.90;99.90;;;;;;4935575;29;20542;-75
2023/05/25 00:32:01;;;;;;;17.75;7.78;;;17.90;99.90;;;;;;4919310;29;20048;-75
2023/05/25 00:34:27;;;;;;;13.80;8.35;;;17.90;99.90;;;;;;4920765;29;20028;-74
2023/05/25 00:36:53;;;;;;;12.73;8.20;;;17.90;99.90;;;;;;4919456;29;20036;-75
2023/05/25 00:39:20;;;;;;;16.50;8.93;;;17.80;99.90;;;;;;4919244;29;20382;-75
2023/05/25 00:41:47;;;;;;;14.45;8.55;;;17.70;99.90;;;;;;4919239;29;20044;-74
2023/05/25 00:44:14;;;;;;;19.17;9.50;;;17.70;99.90;;;;;;4904597;29;20039;-75
2023/05/25 00:46:49;;;;;;;15.75;8.55;;;17.70;99.90;;;;;;4923235;29;20027;-77
2023/05/25 00:49:17;;;;;;;18.27;9.15;;;17.70;99.90;;;;;;4912719;29;20028;-75
2023/05/25 00:51:47;;;;;;;13.73;8.23;;;17.70;99.90;;;;;;4916336;29;20477;-75
2023/05/25 00:54:16;;;;;;;16.08;9.70;;;17.70;99.90;;;;;;4918933;29;20179;-78
2023/05/25 00:56:49;;;;;;;15.00;9.05;;;17.60;99.90;;;;;;4916105;29;20025;-75
2023/05/25 00:59:27;;;;;;;14.73;8.73;;;17.50;99.90;;;;;;4916341;29;20395;-77
2023/05/25 01:01:54;;;;;;;16.25;9.05;;;17.50;99.90;;;;;;4916417;29;20384;-75
2023/05/25 01:04:22;;;;;;;17.75;9.00;;;17.50;99.90;;;;;;4915987;29;20032;-75
2023/05/25 01:06:49;;;;;;;19.33;9.07;;;17.50;99.90;;;;;;4899421;29;20040;-76
2023/05/25 01:09:19;;;;;;;17.55;9.32;;;17.50;99.90;;;;;;4916241;29;20020;-76
2023/05/25 01:11:50;;;;;;;16.38;8.82;;;17.40;99.90;;;;;;4914397;29;20119;-76
2023/05/25 01:14:20;;;;;;;24.13;9.48;;;17.40;99.90;;;;;;4914859;29;20024;-76
2023/05/25 01:16:48;;;;;;;18.30;8.70;;;17.30;99.90;;;;;;4929474;29;20107;-76
2023/05/25 01:19:14;;;;;;;23.33;9.13;;;17.30;99.90;;;;;;4936197;29;20034;-77
2023/05/25 01:21:56;;;;;;;15.60;9.77;;;17.30;99.90;;;;;;4935895;29;20027;-76
2023/05/25 01:24:39;;;;;;;17.90;9.57;;;17.30;99.90;;;;;;4935752;29;20563;-76
2023/05/25 01:27:14;;;;;;;;;;;17.30;99.90;;;;;;4920092;29;20515;-76
2023/05/25 01:29:44;;;;;;;21.92;9.60;;;17.30;99.90;;;;;;4935547;29;19914;-76
2023/05/25 01:32:12;;;;;;;18.10;9.88;;;17.30;99.90;;;;;;4918159;29;20031;-76
2023/05/25 01:34:40;;;;;;;17.65;9.88;;;17.30;99.90;;;;;;4917731;29;20123;-76
2023/05/25 01:37:06;;;;;;;16.02;10.13;;;17.20;99.90;;;;;;4918291;29;20054;-76
2023/05/25 01:39:35;;;;;;;26.38;10.38;;;17.20;99.90;;;;;;4936014;29;20345;-76
2023/05/25 01:42:01;;;;;;;17.48;9.25;;;17.20;99.90;;;;;;4917897;29;20095;-77
2023/05/25 01:44:28;;;;;;;19.52;10.20;;;17.10;99.90;;;;;;4918442;29;20049;-77
2023/05/25 01:47:03;;;;;;;16.15;9.20;;;17.20;99.90;;;;;;4935238;29;20432;-75
2023/05/25 01:49:38;;;;;;;16.30;8.65;;;17.10;99.90;;;;;;4935709;29;20028;-76
2023/05/25 01:52:25;;;;;;;15.88;8.75;;;17.10;99.90;;;;;;4918292;29;20028;-76
2023/05/25 01:54:58;;;;;;;16.77;9.35;;;17.00;99.90;;;;;;4926800;29;20035;-76
2023/05/25 01:57:27;;;;;;;19.55;9.07;;;17.00;99.90;;;;;;4935761;29;20035;-77
2023/05/25 02:00:01;;;;;;;16.63;8.73;;;17.00;99.90;;;;;;4935192;29;20035;-77
2023/05/25 02:02:27;;;;;;;18.60;9.00;;;16.90;99.90;;;;;;4934927;29;20023;-76
2023/05/25 02:04:54;;;;;;;14.80;8.57;;;16.90;99.90;;;;;;4917845;29;20407;-76
2023/05/25 02:07:22;;;;;;;18.00;9.13;;;16.80;99.90;;;;;;4935149;29;20539;-77
2023/05/25 02:09:48;;;;;;;15.07;8.43;;;16.80;99.90;;;;;;4918447;29;20431;-77
2023/05/25 02:12:14;;;;;;;22.38;9.73;;;16.80;99.90;;;;;;4935113;29;20054;-76
2023/05/25 02:14:40;;;;;;;15.38;8.57;;;16.70;99.90;;;;;;4935135;29;20047;-77
2023/05/25 02:17:07;;;;;;;13.85;8.82;;;16.80;99.90;;;;;;4917908;29;20036;-76
2023/05/25 02:19:34;;;;;;;16.48;9.05;;;16.70;99.90;;;;;;4918308;29;20026;-76
2023/05/25 02:22:00;;;;;;;17.42;9.10;;;16.70;99.90;;;;;;4918344;29;20395;-76
2023/05/25 02:24:26;;;;;;;14.48;8.00;;;16.70;99.90;;;;;;4917369;29;20036;-76
2023/05/25 02:26:52;;;;;;;22.73;8.40;;;16.70;99.90;;;;;;4935140;29;20020;-76
2023/05/25 02:29:18;;;;;;;18.88;9.60;;;16.70;99.90;;;;;;4917324;29;20031;-76
2023/05/25 02:31:44;;;;;;;14.65;8.52;;;16.70;99.90;;;;;;4918097;29;20034;-77
2023/05/25 02:34:12;;;;;;;18.08;8.65;;;16.60;99.90;;;;;;4934072;29;20024;-78
2023/05/25 02:36:42;;;;;;;17.13;8.85;;;16.70;99.90;;;;;;4918863;29;20032;-77
2023/05/25 02:39:08;;;;;;;16.13;9.02;;;16.50;99.90;;;;;;4917620;29;20042;-77
2023/05/25 02:41:34;;;;;;;13.23;8.27;;;16.50;99.90;;;;;;4917619;29;20031;-77
2023/05/25 02:44:00;;;;;;;15.90;8.25;;;16.50;99.90;;;;;;4934642;29;20485;-77
2023/05/25 02:46:26;;;;;;;15.95;8.88;;;16.50;99.90;;;;;;4917030;29;20024;-77
2023/05/25 02:48:52;;;;;;;15.05;8.98;;;16.50;99.90;;;;;;4917912;29;20035;-77
2023/05/25 02:51:18;;;;;;;18.27;7.63;;;16.40;99.90;;;;;;4917517;29;20467;-77
2023/05/25 02:53:44;;;;;;;14.98;8.15;;;16.50;99.90;;;;;;4917814;29;20036;-77
2023/05/25 02:56:10;;;;;;;17.48;7.28;;;16.40;99.90;;;;;;4916907;29;20027;-77
2023/05/25 02:58:37;;;;;;;11.80;7.72;;;16.40;99.90;;;;;;4917772;29;20392;-77
2023/05/25 03:01:16;;;;;;;15.85;7.72;;;16.40;99.90;;;;;;4917301;29;20019;-77
2023/05/25 03:03:45;;;;;;;14.00;7.28;;;16.40;99.90;;;;;;4917048;29;20049;-77
2023/05/25 03:06:12;;;;;;;12.30;7.28;;;16.40;99.90;;;;;;4917177;29;20032;-77
2023/05/25 03:08:38;;;;;;;12.93;7.50;;;16.40;99.90;;;;;;4917181;29;20123;-78
2023/05/25 03:11:04;;;;;;;14.73;7.10;;;16.40;99.90;;;;;;4934575;29;20031;-78
2023/05/25 03:13:30;;;;;;;13.40;6.80;;;16.40;99.90;;;;;;4916928;29;20399;-77
2023/05/25 03:15:56;;;;;;;16.30;7.50;;;16.30;99.90;;;;;;4917415;29;20031;-77
2023/05/25 03:18:22;;;;;;;14.00;7.00;;;16.40;99.90;;;;;;4901111;29;20036;-78
2023/05/25 03:20:48;;;;;;;14.05;7.38;;;16.30;99.90;;;;;;4917505;29;20488;-77
2023/05/25 03:23:15;;;;;;;22.90;8.55;;;16.30;99.90;;;;;;4917419;29;20038;-77
2023/05/25 03:25:41;;;;;;;14.27;8.15;;;16.40;99.90;;;;;;4917546;29;20036;-77
2023/05/25 03:28:07;;;;;;;12.90;7.13;;;16.40;99.90;;;;;;4917066;29;20051;-77
2023/05/25 03:30:33;;;;;;;13.02;7.97;;;16.50;99.90;;;;;;4916381;29;20055;-77
2023/05/25 03:32:58;;;;;;;13.05;7.97;;;16.40;99.90;;;;;;4933838;29;20480;-77
2023/05/25 03:35:30;;;;;;;15.02;7.35;;;16.50;99.90;;;;;;4916837;29;20032;-78
2023/05/25 03:37:56;;;;;;;14.13;7.57;;;16.50;99.90;;;;;;4917482;29;20028;-77
2023/05/25 03:40:22;;;;;;;18.42;7.57;;;16.60;99.90;;;;;;4930601;29;20046;-78
2023/05/25 03:42:48;;;;;;;14.43;8.07;;;16.90;99.90;;;;;;4934187;29;20043;-77
2023/05/25 03:45:13;;;;;;;14.23;7.70;;;17.20;99.90;;;;;;4916795;29;20048;-78
2023/05/25 03:47:40;;;;;;;12.45;6.07;;;17.10;99.90;;;;;;4917274;29;20024;-78
2023/05/25 03:50:06;;;;;;;17.45;6.80;;;17.30;99.90;;;;;;4933912;29;20038;-77
2023/05/25 03:52:32;;;;;;;12.25;7.55;;;17.70;99.90;;;;;;4917064;29;20473;-77
2023/05/25 03:55:00;;;;;;;12.55;7.00;;;17.80;99.90;;;;;;4934121;29;20031;-77
2023/05/25 03:57:27;;;;;;;14.43;6.60;;;18.20;99.90;;;;;;4918292;29;20571;-77
2023/05/25 03:59:53;;;;;;;12.15;5.90;;;18.40;99.90;;;;;;4920161;29;20047;-77
2023/05/25 04:02:19;;;;;;;11.02;6.30;;;18.90;99.90;;;;;;4920072;29;20019;-78
2023/05/25 04:04:45;;;;;;;10.95;6.35;;;18.90;99.90;;;;;;4920771;29;20110;-78
2023/05/25 04:07:11;;;;;;;11.98;6.22;;;19.10;99.90;;;;;;4917071;29;20187;-79
2023/05/25 04:09:36;;;;;;;10.50;5.97;;;19.90;99.90;;;;;;4912682;29;20098;-80
2023/05/25 04:12:03;;;;;;;11.52;5.97;;;20.20;99.90;;;;;;4923655;29;20052;-77
2023/05/25 04:14:30;;;;;;;9.80;6.10;;;20.40;99.90;;;;;;4945238;29;20031;-77
2023/05/25 04:16:56;;;;;;;12.90;5.85;;;20.60;99.90;;;;;;4915203;29;20023;-77
2023/05/25 04:19:22;;;;;;;12.13;5.70;;;20.70;99.90;;;;;;4937413;29;20035;-77
2023/05/25 04:21:47;;;;;;;9.35;5.30;;;21.30;99.90;;;;;;4937300;29;20379;-78
2023/05/25 04:24:14;;;;;;;9.68;5.38;;;21.70;99.90;;;;;;4919782;29;20035;-79
2023/05/25 04:26:41;;;;;;;11.80;5.90;;;22.10;99.90;;;;;;4920013;29;20475;-77
2023/05/25 04:29:08;;;;;;;11.70;5.50;;;22.40;99.90;;;;;;4920621;29;20034;-76
2023/05/25 04:31:53;;;;;;;7.78;4.85;;;22.30;99.90;;;;;;4919074;29;20043;-78
2023/05/25 04:34:41;;;;;;;12.90;6.07;;;22.20;99.90;;;;;;4920054;29;20038;-78
2023/05/25 04:37:14;;;;;;;8.13;5.10;;;21.80;99.90;;;;;;4919309;29;20167;-77
2023/05/25 04:39:40;;;;;;;7.82;5.15;;;22.10;99.90;;;;;;4937586;29;20103;-76
2023/05/25 04:42:06;;;;;;;9.10;5.50;;;22.00;99.90;;;;;;4919814;29;20428;-77
2023/05/25 04:44:33;;;;;;;8.25;5.00;;;22.30;99.90;;;;;;4919369;29;20533;-76
2023/05/25 04:47:01;;;;;;;9.98;4.93;;;21.90;99.90;;;;;;4919492;29;20024;-75
2023/05/25 04:49:32;;;;;;;10.30;5.35;;;22.30;99.90;;;;;;4919506;29;20503;-77
2023/05/25 04:51:58;;;;;;;13.15;6.45;;;21.30;99.90;;;;;;4919931;29;20107;-76
2023/05/25 04:54:26;;;;;;;12.02;5.10;;;20.90;99.90;;;;;;4919644;29;20127;-77
2023/05/25 04:56:52;;;;;;;9.13;5.45;;;20.30;99.90;;;;;;4919807;29;20531;-78
2023/05/25 04:59:19;;;;;;;13.52;5.70;;;19.90;99.90;;;;;;4918863;29;20051;-78
2023/05/25 05:01:46;;;;;;;8.15;5.38;;;19.90;99.90;;;;;;4919335;29;20063;-78
2023/05/25 05:04:15;;;;;;;11.07;6.70;;;19.90;99.90;;;;;;4919024;29;20563;-79
2023/05/25 05:06:42;;;;;;;10.75;5.70;;;20.10;99.90;;;;;;4919063;29;20028;-79
2023/05/25 05:09:12;;;;;;;10.57;5.93;;;20.10;99.90;;;;;;4918283;29;20031;-78
2023/05/25 05:11:38;;;;;;;10.70;5.25;;;20.50;99.90;;;;;;4919198;29;20080;-78
2023/05/25 05:14:06;;;;;;;12.35;5.75;;;20.30;99.90;;;;;;4903897;29;20468;-77
2023/05/25 05:16:33;;;;;;;9.80;5.72;;;20.20;99.90;;;;;;4918712;29;20079;-78
2023/05/25 05:19:00;;;;;;;12.43;5.72;;;20.30;99.90;;;;;;4918341;29;20055;-78
2023/05/25 05:21:26;;;;;;;10.80;5.85;;;20.10;99.90;;;;;;4919120;29;20026;-78
2023/05/25 05:23:53;;;;;;;9.98;5.38;;;19.90;99.90;;;;;;4908951;29;20036;-77
2023/05/25 05:26:20;;;;;;;9.30;5.72;;;19.90;99.90;;;;;;4918937;29;20027;-77
2023/05/25 05:28:48;;;;;;;9.60;6.20;;;19.70;99.90;;;;;;4918436;29;20031;-77
2023/05/25 05:31:16;;;;;;;10.05;5.85;;;19.60;99.90;;;;;;4910572;29;20030;-78
2023/05/25 05:33:42;;;;;;;9.77;5.57;;;19.90;99.90;;;;;;4918149;29;20369;-77
2023/05/25 05:36:08;;;;;;;9.13;5.70;;;20.10;99.90;;;;;;4929824;29;20035;-78
2023/05/25 05:38:35;;;;;;;12.18;6.28;;;20.10;99.90;;;;;;4918091;29;20067;-77
2023/05/25 05:41:01;;;;;;;16.50;6.05;;;20.10;99.90;;;;;;4918794;29;20110;-78
2023/05/25 05:43:27;;;;;;;10.85;6.38;;;20.10;99.90;;;;;;4918406;29;20519;-77
2023/05/25 05:45:53;;;;;;;9.90;6.32;;;20.40;99.90;;;;;;4935426;29;20062;-78
2023/05/25 05:48:19;;;;;;;10.73;5.95;;;20.60;99.90;;;;;;4918580;29;20045;-78
2023/05/25 05:50:45;;;;;;;10.18;5.70;;;20.80;99.90;;;;;;4935553;29;20056;-77
2023/05/25 05:53:12;;;;;;;11.15;5.45;;;20.90;99.90;;;;;;4918057;29;20396;-78
2023/05/25 05:55:38;;;;;;;10.13;6.13;;;21.10;99.90;;;;;;4918443;29;20450;-78
2023/05/25 05:58:04;;;;;;;12.27;6.47;;;20.90;99.90;;;;;;4918657;29;20031;-78
2023/05/25 06:00:30;;;;;;;11.65;6.15;;;21.00;99.90;;;;;;4935237;29;20027;-78
2023/05/25 06:02:56;;;;;;;12.60;7.50;;;21.10;99.90;;;;;;4930802;29;20036;-78
2023/05/25 06:05:25;;;;;;;11.45;6.25;;;21.30;99.90;;;;;;4926933;29;20063;-76
2023/05/25 06:07:52;;;;;;;13.70;6.65;;;21.10;99.90;;;;;;4918253;29;20032;-78
2023/05/25 06:10:20;;;;;;;12.82;7.32;;;21.00;99.90;;;;;;4902697;29;20364;-77
2023/05/25 06:12:45;;;;;;;11.88;6.93;;;21.00;99.90;;;;;;4917650;29;20051;-76
2023/05/25 06:15:11;;;;;;;9.45;5.70;;;21.00;99.90;;;;;;4928521;29;20087;-76
2023/05/25 06:17:38;;;;;;;12.40;6.43;;;20.90;99.90;;;;;;4917679;29;20031;-76
2023/05/25 06:20:05;;;;;;;9.93;5.65;;;21.20;99.90;;;;;;4915730;29;20032;-77
2023/05/25 06:22:32;;;;;;;10.23;5.80;;;21.10;99.90;;;;;;4917440;29;20044;-77
2023/05/25 06:24:58;;;;;;;11.07;6.43;;;21.20;99.90;;;;;;4917940;29;20095;-76
2023/05/25 06:27:24;;;;;;;10.85;6.20;;;21.10;99.90;;;;;;4918045;29;20031;-78
2023/05/25 06:29:50;;;;;;;12.85;6.35;;;21.30;99.90;;;;;;4935334;29;20027;-77
2023/05/25 06:32:16;;;;;;;12.77;7.00;;;21.10;99.90;;;;;;4917999;29;20390;-77
2023/05/25 06:34:42;;;;;;;10.20;6.15;;;21.20;99.90;;;;;;4921462;29;20518;-77
2023/05/25 06:37:08;;;;;;;11.88;6.10;;;21.30;99.90;;;;;;4921144;29;20042;-78
2023/05/25 06:39:35;;;;;;;12.52;6.78;;;21.30;99.90;;;;;;4917270;29;20030;-77
2023/05/25 06:42:01;;;;;;;12.50;6.53;;;21.20;99.90;;;;;;4918221;29;20028;-77
2023/05/25 06:44:30;;;;;;;11.90;7.70;;;21.30;99.90;;;;;;4934065;29;20518;-76
2023/05/25 06:47:00;;;;;;;13.60;7.07;;;21.40;99.90;;;;;;4908108;29;20035;-78
2023/05/25 06:49:26;;;;;;;11.43;6.18;;;21.40;99.90;;;;;;4931986;29;20110;-78
2023/05/25 06:51:52;;;;;;;15.18;7.43;;;21.70;99.90;;;;;;4934523;29;20107;-78
2023/05/25 06:54:18;;;;;;;13.38;7.30;;;21.70;99.90;;;;;;4934550;29;20024;-77
2023/05/25 06:56:45;;;;;;;10.32;6.90;;;21.80;99.90;;;;;;4934457;29;20035;-77
2023/05/25 06:59:11;;;;;;;14.05;7.32;;;22.20;99.90;;;;;;4934266;29;20039;-79
2023/05/25 07:01:36;;;;;;;12.48;7.05;;;22.20;99.90;;;;;;4917520;29;20035;-77
2023/05/25 07:04:02;;;;;;;13.18;7.35;;;22.40;99.90;;;;;;4934223;29;20046;-77
2023/05/25 07:06:28;;;;;;;10.07;6.90;;;22.30;99.90;;;;;;4934995;29;20040;-77
2023/05/25 07:08:54;;;;;;;11.57;6.88;;;22.40;99.90;;;;;;4934456;29;20083;-77
2023/05/25 07:11:20;;;;;;;9.13;6.00;;;22.60;99.90;;;;;;4937079;29;20071;-75
2023/05/25 07:13:47;;;;;;;11.35;7.20;;;22.30;99.90;;;;;;4934426;29;20111;-79
2023/05/25 07:16:13;;;;;;;10.13;6.40;;;22.60;99.90;;;;;;4934324;29;20035;-79
2023/05/25 07:18:41;;;;;;;11.35;6.65;;;22.80;99.90;;;;;;4934123;29;20043;-78
2023/05/25 07:21:09;;;;;;;10.60;6.75;;;22.70;99.90;;;;;;4917015;29;20039;-76
2023/05/25 07:23:36;;;;;;;11.20;7.20;;;22.80;99.90;;;;;;4934178;29;20032;-77
2023/05/25 07:26:02;;;;;;;13.23;7.57;;;22.80;99.90;;;;;;4917358;29;20024;-76
2023/05/25 07:28:28;;;;;;;11.95;7.75;;;22.90;99.90;;;;;;4933632;29;20130;-77
2023/05/25 07:30:54;;;;;;;12.20;6.43;;;22.70;99.90;;;;;;4934273;29;20024;-77
2023/05/25 07:33:20;;;;;;;11.30;6.40;;;22.70;99.90;;;;;;4937232;29;20036;-77
2023/05/25 07:35:46;;;;;;;10.95;6.95;;;22.80;99.90;;;;;;4937665;29;20054;-77
2023/05/25 07:38:12;;;;;;;21.50;7.50;;;23.00;99.90;;;;;;4920741;29;20043;-77
2023/05/25 07:40:37;;;;;;;11.07;6.28;;;23.20;99.90;;;;;;4920412;29;20032;-77
2023/05/25 07:43:04;;;;;;;11.43;6.93;;;23.00;99.90;;;;;;4937671;29;20505;-79
2023/05/25 07:45:30;;;;;;;10.15;6.80;;;23.20;99.90;;;;;;4937765;29;20019;-77
2023/05/25 07:47:56;;;;;;;12.85;6.78;;;23.00;99.90;;;;;;4937885;29;20397;-78
2023/05/25 07:50:22;;;;;;;10.15;6.93;;;23.20;99.90;;;;;;4937258;29;20554;-78
2023/05/25 07:52:48;;;;;;;14.23;7.13;;;23.50;99.90;;;;;;4937862;29;20115;-78
2023/05/25 07:55:14;;;;;;;15.20;8.02;;;23.80;99.90;;;;;;4937291;29;20067;-79
2023/05/25 07:57:40;;;;;;;10.82;6.40;;;23.70;99.90;;;;;;4938109;29;20085;-77
2023/05/25 08:00:09;;;;;;;10.80;6.93;;;23.50;99.90;;;;;;4937591;29;20035;-78
2023/05/25 08:02:41;;;;;;;15.40;7.72;;;23.80;99.90;;;;;;4921728;29;20043;-77
2023/05/25 08:05:07;;;;;;;11.10;7.35;;;23.80;99.90;;;;;;4937490;29;20480;-78
2023/05/25 08:07:33;;;;;;;10.50;6.65;;;23.50;99.90;;;;;;4920777;29;20039;-77
2023/05/25 08:09:59;;;;;;;14.95;7.13;;;23.40;99.90;;;;;;4937386;29;20027;-77
2023/05/25 08:12:25;;;;;;;10.68;6.25;;;23.40;99.90;;;;;;4920296;29;20220;-77
2023/05/25 08:14:53;;;;;;;9.90;5.90;;;23.40;99.90;;;;;;4937689;29;20102;-77
2023/05/25 08:17:19;;;;;;;11.65;6.53;;;23.40;99.90;;;;;;4937344;29;20030;-78
2023/05/25 08:19:45;;;;;;;13.52;7.32;;;23.90;99.90;;;;;;4934455;29;20046;-77
2023/05/25 08:22:11;;;;;;;11.90;6.97;;;24.00;99.90;;;;;;4931195;29;20464;-78
2023/05/25 08:24:37;;;;;;;12.73;5.93;;;23.90;99.90;;;;;;4937195;29;20120;-78
2023/05/25 08:27:03;;;;;;;9.88;5.72;;;23.80;99.90;;;;;;4920033;29;20028;-78
2023/05/25 08:29:29;;;;;;;11.88;6.80;;;23.70;99.90;;;;;;4936927;29;20020;-77
2023/05/25 08:31:55;;;;;;;14.40;6.80;;;24.00;99.90;;;;;;4936893;29;20404;-77
2023/05/25 08:34:21;;;;;;;8.85;6.20;;;24.20;99.90;;;;;;4937152;29;20035;-77
2023/05/25 08:36:47;;;;;;;11.43;5.60;;;24.10;99.90;;;;;;4936456;29;20035;-76
2023/05/25 08:39:14;;;;;;;9.23;5.88;;;24.10;99.90;;;;;;4936127;29;20039;-77
2023/05/25 08:41:44;;;;;;;9.73;5.97;;;24.30;99.90;;;;;;4920128;29;20391;-76
2023/05/25 08:44:10;;;;;;;9.45;6.20;;;24.10;99.90;;;;;;4936509;29;20090;-78
2023/05/25 08:46:36;;;;;;;10.45;6.22;;;24.40;99.90;;;;;;4937089;29;20020;-77
2023/05/25 08:49:12;;;;;;;10.90;5.80;;;24.40;99.90;;;;;;4936708;29;20044;-78
2023/05/25 08:51:42;;;;;;;8.35;5.68;;;23.90;99.90;;;;;;4936325;29;20052;-78
2023/05/25 08:54:11;;;;;;;9.30;5.15;;;24.10;99.90;;;;;;4936079;29;20136;-77
2023/05/25 08:56:53;;;;;;;9.45;5.80;;;24.30;99.90;;;;;;4933772;29;20428;-76
2023/05/25 09:00:10;;;;;;;8.57;5.57;;;24.40;99.90;;;;;;4935951;29;20416;-77
2023/05/25 09:02:56;;;;;;;8.45;5.47;;;24.30;99.90;;;;;;4871677;29;20075;-76
2023/05/25 09:05:23;;;;;;;7.28;4.50;;;24.80;99.90;;;;;;4873937;29;20136;-77
2023/05/25 09:07:50;;;;;;;8.38;5.03;;;24.80;99.90;;;;;;4874203;29;20089;-77
2023/05/25 09:10:16;;;;;;;9.57;5.05;;;24.90;99.90;;;;;;4877964;29;20032;-77
2023/05/25 09:12:42;;;;;;;7.75;4.68;;;25.10;99.90;;;;;;4876976;29;20526;-77
2023/05/25 09:15:11;;;;;;;8.32;5.28;;;24.80;99.90;;;;;;4877823;29;20140;-78
2023/05/25 09:17:39;;;;;;;8.80;5.18;;;25.10;99.80;;;;;;4877339;29;20529;-76
2023/05/25 09:20:09;;;;;;;8.00;4.70;;;25.20;99.70;;;;;;4862021;29;20445;-77
2023/05/25 09:22:36;;;;;;;7.75;4.72;;;25.00;99.90;;;;;;4877189;29;20553;-77
2023/05/25 09:25:06;;;;;;;8.02;4.88;;;24.60;99.90;;;;;;4877768;29;20452;-78
2023/05/25 09:27:36;;;;;;;7.88;4.90;;;25.00;99.90;;;;;;4877486;29;20029;-77
2023/05/25 09:30:03;;;;;;;7.07;4.68;;;25.20;99.70;;;;;;4877364;29;20454;-77
2023/05/25 09:32:29;;;;;;;8.35;4.63;;;25.00;99.90;;;;;;4877189;29;20052;-78
2023/05/25 09:35:05;;;;;;;9.30;5.47;;;24.80;99.90;;;;;;4861450;29;20045;-78
2023/05/25 09:37:31;;;;;;;8.43;5.28;;;25.00;99.90;;;;;;4870499;29;20041;-77
2023/05/25 09:39:57;;;;;;;6.95;4.38;;;25.30;99.90;;;;;;4929481;29;20059;-77
2023/05/25 09:42:22;;;;;;;7.05;4.22;;;25.30;99.90;;;;;;4935525;29;20058;-77
2023/05/25 09:44:48;;;;;;;7.53;4.45;;;24.90;99.90;;;;;;4935833;29;20435;-76
2023/05/25 09:47:16;;;;;;;7.75;4.88;;;24.80;99.50;;;;;;4935282;29;20024;-76
2023/05/25 09:49:43;;;;;;;7.25;4.90;;;25.20;99.90;;;;;;4935779;29;20063;-75
2023/05/25 09:52:11;;;;;;;7.50;4.57;;;25.10;99.80;;;;;;4923211;29;20028;-76
2023/05/25 09:54:39;;;;;;;6.53;4.25;;;25.40;99.20;;;;;;4918294;29;20432;-76
2023/05/25 09:57:05;;;;;;;6.88;4.53;;;24.90;99.90;;;;;;4935634;29;20047;-77
2023/05/25 09:59:31;;;;;;;8.25;4.50;;;25.40;99.50;;;;;;4935218;29;20024;-77
2023/05/25 10:01:58;;;;;;;8.52;3.97;;;25.10;98.30;;;;;;4935726;29;20570;-77
2023/05/25 10:04:23;;;;;;;10.38;4.80;;;24.90;99.00;;;;;;4935314;29;20075;-76
2023/05/25 10:06:51;;;;;;;6.93;4.90;;;25.00;99.10;;;;;;4935724;29;20067;-77
2023/05/25 10:09:19;;;;;;;10.98;4.85;;;25.20;98.50;;;;;;4934996;29;20027;-76
2023/05/25 10:11:45;;;;;;;6.53;4.25;;;25.40;99.90;;;;;;4935283;29;20048;-77
2023/05/25 10:14:16;;;;;;;5.72;4.57;;;25.60;99.70;;;;;;4935239;29;20046;-77
2023/05/25 10:16:47;;;;;;;6.17;4.33;;;25.70;99.20;;;;;;4918054;29;20479;-76
2023/05/25 10:19:27;;;;;;;7.80;4.20;;;25.80;97.80;;;;;;4917908;29;20274;-78
2023/05/25 10:22:06;;;;;;;5.63;3.92;;;25.90;99.80;;;;;;4912716;29;20032;-77
2023/05/25 10:24:32;;;;;;;7.13;4.95;;;25.80;99.90;;;;;;4935322;29;20571;-76
2023/05/25 10:27:01;;;;;;;5.20;3.97;;;25.90;96.60;;;;;;4935181;29;20237;-77
2023/05/25 10:29:28;;;;;;;8.13;4.13;;;25.30;97.70;;;;;;4930678;29;20039;-76
2023/05/25 10:31:55;;;;;;;6.90;4.45;;;25.20;98.50;;;;;;4924049;29;20448;-76
2023/05/25 10:34:21;;;;;;;7.45;4.25;;;25.70;99.60;;;;;;4934411;29;20030;-76
2023/05/25 10:36:47;;;;;;;7.95;4.90;;;25.50;98.40;;;;;;4947277;29;20020;-77
2023/05/25 10:39:14;;;;;;;7.13;4.72;;;25.30;98.50;;;;;;4925329;29;20091;-76
2023/05/25 10:41:41;;;;;;;6.20;4.13;;;25.40;97.80;;;;;;4914581;29;20028;-76
2023/05/25 10:44:08;;;;;;;7.30;4.53;;;25.60;98.30;;;;;;4921877;29;20399;-77
2023/05/25 10:46:35;;;;;;;9.90;6.40;;;25.60;98.40;;;;;;4921824;29;20042;-78
2023/05/25 10:49:01;;;;;;;12.38;8.40;;;25.70;96.90;;;;;;4934756;29;20028;-77
2023/05/25 10:51:37;;;;;;;9.13;5.25;;;25.50;98.20;;;;;;4917073;29;20106;-76
2023/05/25 10:54:03;;;;;;;8.13;4.47;;;25.60;96.60;;;;;;4923514;29;20035;-77
2023/05/25 10:56:29;;;;;;;7.72;4.38;;;25.30;97.10;;;;;;4907263;29;20032;-78
2023/05/25 10:58:55;;;;;;;7.35;4.55;;;24.80;97.80;;;;;;4933911;29;20087;-78
2023/05/25 11:01:21;;;;;;;10.35;6.63;;;24.60;97.20;;;;;;4934707;29;20148;-78
2023/05/25 11:03:56;;;;;;;8.07;4.60;;;24.30;97.90;;;;;;4934923;29;20054;-77
2023/05/25 11:06:45;;;;;;;8.50;5.07;;;24.10;98.80;;;;;;4934270;29;20036;-78
2023/05/25 11:09:28;;;;;;;7.90;4.25;;;24.10;99.80;;;;;;4938812;29;20050;-77
2023/05/25 11:11:57;;;;;;;7.22;4.18;;;24.60;98.40;;;;;;4938358;29;20054;-77
2023/05/25 11:14:29;;;;;;;6.32;3.67;;;24.90;99.00;;;;;;4938575;29;20040;-77
2023/05/25 11:17:10;;;;;;;7.70;3.80;;;24.90;97.50;;;;;;4926315;29;20545;-78
2023/05/25 11:19:54;;;;;;;6.40;3.70;;;25.10;97.50;;;;;;4938340;29;20027;-77
2023/05/25 11:22:21;;;;;;;7.25;4.15;;;25.00;98.90;;;;;;4938447;29;20042;-78
2023/05/25 11:24:51;;;;;;;6.10;4.25;;;25.30;99.20;;;;;;4938156;29;20683;-77
2023/05/25 11:27:28;;;;;;;5.97;4.05;;;25.60;98.90;;;;;;4938288;29;20024;-78
2023/05/25 11:29:56;;;;;;;6.28;3.75;;;25.80;97.50;;;;;;4938213;29;20032;-78
2023/05/25 11:32:23;;;;;;;5.70;3.60;;;25.90;97.40;;;;;;4937899;29;20543;-78
2023/05/25 11:34:53;;;;;;;6.50;3.47;;;26.10;96.70;;;;;;4938430;29;20048;-77
2023/05/25 11:37:20;;;;;;;4.38;3.13;;;26.20;97.50;;;;;;4938016;29;20042;-78
2023/05/25 11:39:47;;;;;;;5.22;3.60;;;26.20;98.60;;;;;;4921098;29;20526;-78
2023/05/25 11:42:14;;;;;;;5.68;3.88;;;26.20;96.10;;;;;;4937829;29;20055;-77
2023/05/25 11:44:40;;;;;;;4.43;3.20;;;26.20;96.80;;;;;;4938134;29;20396;-77
2023/05/25 11:47:07;;;;;;;5.05;3.50;;;26.10;97.30;;;;;;4937943;29;20058;-77
2023/05/25 11:49:34;;;;;;;5.40;3.60;;;26.00;96.70;;;;;;4938124;29;20066;-78
2023/05/25 11:52:07;;;;;;;4.55;3.38;;;26.10;96.90;;;;;;4937589;29;20106;-78
2023/05/25 11:54:33;;;;;;;6.72;3.70;;;26.30;95.80;;;;;;4937718;29;20039;-78
2023/05/25 11:57:00;;;;;;;10.38;3.40;;;26.20;97.20;;;;;;4937910;29;20047;-77
2023/05/25 11:59:26;;;;;;;6.13;3.35;;;26.10;96.10;;;;;;4937768;29;20937;-76
2023/05/25 12:02:03;;;;;;;5.63;3.33;;;26.20;94.80;;;;;;4937958;29;20039;-77
2023/05/25 12:04:33;;;;;;;3.78;2.80;;;26.30;95.10;;;;;;4937255;29;20130;-78
2023/05/25 12:07:03;;;;;;;5.88;3.45;;;26.40;95.00;;;;;;4937638;29;20032;-77
2023/05/25 12:09:30;;;;;;;3.67;3.00;;;26.40;95.50;;;;;;4937788;29;20066;-77
2023/05/25 12:11:56;;;;;;;4.97;3.10;;;26.60;94.40;;;;;;4937299;29;20043;-76
2023/05/25 12:14:22;;;;;;;5.80;2.55;;;26.50;95.70;;;;;;4937593;29;20484;-77
2023/05/25 12:16:49;;;;;;;5.55;3.67;;;26.70;96.50;;;;;;4937341;29;20077;-77
2023/05/25 12:19:15;;;;;;;6.97;3.30;;;26.40;95.60;;;;;;4937428;29;20023;-76
2023/05/25 12:21:42;;;;;;;5.95;3.58;;;26.00;94.70;;;;;;4937570;29;20038;-76
2023/05/25 12:24:11;;;;;;;5.63;3.67;;;25.60;95.40;;;;;;4937400;29;20070;-77
2023/05/25 12:26:56;;;;;;;4.47;3.50;;;25.40;95.50;;;;;;4937247;29;20431;-76
2023/05/25 12:29:23;;;;;;;8.05;4.25;;;25.10;96.00;;;;;;4936858;29;20440;-77
2023/05/25 12:31:49;;;;;;;5.22;3.78;;;24.90;96.10;;;;;;4937260;29;20122;-76
2023/05/25 12:34:17;;;;;;;4.43;3.55;;;25.00;96.90;;;;;;4937358;29;20379;-78
2023/05/25 12:36:50;;;;;;;5.53;3.70;;;25.10;96.80;;;;;;4937165;29;20028;-78
2023/05/25 12:39:30;;;;;;;10.10;4.22;;;25.20;97.20;;;;;;4924727;29;20075;-78
2023/05/25 12:42:00;;;;;;;5.57;3.58;;;25.50;96.10;;;;;;4937014;29;20083;-78
2023/05/25 12:44:36;;;;;;;5.63;3.60;;;26.00;97.10;;;;;;4937163;29;20122;-77